createdAt,value
2018-08-07T00:00:38.507Z,7.17
2018-08-07T00:03:06.756Z,6.90
2018-08-07T00:05:35.001Z,7.13
2018-08-07T00:08:03.273Z,7.10
2018-08-07T00:10:31.525Z,7.07
2018-08-07T00:12:59.763Z,7.30
2018-08-07T00:15:28.773Z,7.30
2018-08-07T00:17:57.018Z,6.90
2018-08-07T00:20:25.291Z,7.00
2018-08-07T00:22:53.541Z,7.20
2018-08-07T00:25:21.800Z,7.20
2018-08-07T00:27:50.046Z,7.27
2018-08-07T00:30:18.302Z,6.50
2018-08-07T00:32:47.409Z,7.27
2018-08-07T00:35:15.653Z,6.47
2018-08-07T00:37:43.930Z,7.30
2018-08-07T00:40:12.156Z,7.00
2018-08-07T00:42:40.394Z,7.00
2018-08-07T00:45:09.409Z,7.20
2018-08-07T00:47:37.655Z,6.63
2018-08-07T00:50:06.684Z,6.80
2018-08-07T00:52:34.919Z,7.17
2018-08-07T00:55:03.171Z,7.00
2018-08-07T00:57:31.410Z,6.80
2018-08-07T00:59:59.646Z,7.10
2018-08-07T01:02:28.790Z,7.43
2018-08-07T01:04:57.042Z,7.87
2018-08-07T01:07:25.309Z,7.17
2018-08-07T01:09:53.553Z,8.17
2018-08-07T01:12:21.798Z,7.57
2018-08-07T01:14:50.050Z,7.17
2018-08-07T01:17:18.290Z,7.33
2018-08-07T01:19:47.314Z,7.30
2018-08-07T01:22:15.545Z,7.60
2018-08-07T01:24:43.782Z,7.20
2018-08-07T01:27:12.038Z,7.63
2018-08-07T01:29:40.282Z,7.70
2018-08-07T01:32:09.310Z,7.67
2018-08-07T01:34:37.550Z,7.50
2018-08-07T01:37:06.877Z,6.97
2018-08-07T01:39:35.117Z,7.37
2018-08-07T01:42:04.139Z,7.13
2018-08-07T01:44:32.377Z,7.27
2018-08-07T01:47:00.617Z,7.00
2018-08-07T01:49:28.870Z,7.20
2018-08-07T01:51:57.116Z,7.17
2018-08-07T01:54:26.129Z,7.63
2018-08-07T01:56:54.369Z,7.50
2018-08-07T01:59:22.612Z,8.07
2018-08-07T02:01:50.875Z,8.50
2018-08-07T02:04:19.113Z,7.70
2018-08-07T02:06:48.153Z,7.80
2018-08-07T02:09:16.402Z,8.10
2018-08-07T02:11:44.641Z,7.33
2018-08-07T02:14:12.892Z,7.73
2018-08-07T02:16:41.125Z,8.23
2018-08-07T02:19:09.707Z,7.80
2018-08-07T02:21:37.952Z,7.60
2018-08-07T02:24:06.961Z,7.93
2018-08-07T02:26:35.977Z,7.53
2018-08-07T02:29:04.271Z,7.17
2018-08-07T02:31:33.238Z,7.80
2018-08-07T02:34:01.490Z,7.70
2018-08-07T02:36:30.498Z,7.20
2018-08-07T02:38:58.741Z,7.27
2018-08-07T02:41:27.781Z,7.77
2018-08-07T02:43:56.014Z,8.20
2018-08-07T02:46:25.103Z,7.63
2018-08-07T02:48:53.330Z,8.30
2018-08-07T02:51:21.598Z,7.80
2018-08-07T02:53:49.827Z,7.80
2018-08-07T02:56:18.099Z,7.77
2018-08-07T02:58:46.340Z,7.97
2018-08-07T03:01:14.575Z,7.57
2018-08-07T03:03:42.967Z,7.63
2018-08-07T03:06:11.720Z,7.63
2018-08-07T03:08:40.726Z,7.20
2018-08-07T03:11:09.755Z,7.27
2018-08-07T03:13:38.317Z,7.37
2018-08-07T03:16:06.602Z,7.93
2018-08-07T03:18:34.841Z,7.93
2018-08-07T03:21:04.029Z,7.87
2018-08-07T03:23:32.286Z,7.67
2018-08-07T03:26:00.515Z,8.30
2018-08-07T03:28:28.779Z,7.83
2018-08-07T03:30:57.114Z,8.43
2018-08-07T03:33:25.355Z,7.77
2018-08-07T03:35:53.594Z,8.00
2018-08-07T03:38:22.613Z,8.03
2018-08-07T03:40:50.853Z,8.53
2018-08-07T03:43:19.857Z,7.87
2018-08-07T03:45:48.121Z,8.40
2018-08-07T03:48:17.284Z,8.37
2018-08-07T03:50:45.534Z,8.07
2018-08-07T03:53:13.789Z,7.80
2018-08-07T03:55:42.367Z,8.80
2018-08-07T03:58:10.605Z,8.10
2018-08-07T04:00:38.893Z,8.13
2018-08-07T04:03:07.166Z,8.33
2018-08-07T04:05:36.179Z,8.47
2018-08-07T04:08:04.433Z,8.83
2018-08-07T04:10:33.471Z,7.77
2018-08-07T04:13:01.719Z,8.33
2018-08-07T04:15:29.953Z,8.03
2018-08-07T04:17:58.427Z,8.17
2018-08-07T04:20:26.677Z,7.90
2018-08-07T04:22:54.933Z,8.30
2018-08-07T04:25:23.189Z,7.80
2018-08-07T04:27:52.196Z,7.87
2018-08-07T04:30:20.450Z,8.50
2018-08-07T04:32:49.457Z,8.73
2018-08-07T04:35:17.725Z,9.07
2018-08-07T04:37:49.431Z,8.50
2018-08-07T04:40:17.689Z,8.60
2018-08-07T04:42:45.934Z,7.97
2018-08-07T04:45:14.962Z,8.77
2018-08-07T04:47:43.235Z,8.33
2018-08-07T04:50:11.486Z,8.20
2018-08-07T04:52:40.793Z,8.63
2018-08-07T04:55:09.150Z,8.47
2018-08-07T04:57:38.142Z,8.57
2018-08-07T05:00:06.400Z,8.77
2018-08-07T05:02:34.646Z,8.83
2018-08-07T05:05:02.914Z,8.40
2018-08-07T05:07:31.161Z,8.33
2018-08-07T05:09:59.432Z,8.67
2018-08-07T05:12:28.485Z,9.03
2018-08-07T05:14:56.742Z,8.87
2018-08-07T05:17:25.869Z,9.00
2018-08-07T05:19:54.143Z,9.27
2018-08-07T05:22:22.393Z,9.50
2018-08-07T05:24:50.658Z,10.77
2018-08-07T05:27:18.954Z,10.13
2018-08-07T05:29:47.213Z,10.03
2018-08-07T05:32:15.471Z,9.73
2018-08-07T05:34:43.763Z,9.43
2018-08-07T05:37:12.018Z,9.83
2018-08-07T05:39:40.282Z,9.60
2018-08-07T05:42:08.555Z,9.57
2018-08-07T05:44:36.841Z,9.90
2018-08-07T05:47:05.082Z,9.50
2018-08-07T05:49:34.093Z,9.40
2018-08-07T05:52:02.359Z,9.23
2018-08-07T05:54:31.385Z,9.77
2018-08-07T05:56:59.654Z,9.07
2018-08-07T05:59:27.916Z,8.90
2018-08-07T06:01:56.264Z,9.27
2018-08-07T06:04:24.489Z,9.30
2018-08-07T06:06:52.743Z,9.13
2018-08-07T06:09:21.008Z,8.90
2018-08-07T06:11:49.265Z,9.30
2018-08-07T06:14:17.502Z,9.20
2018-08-07T06:16:45.763Z,8.53
2018-08-07T06:19:14.874Z,8.23
2018-08-07T06:21:43.036Z,8.27
2018-08-07T06:24:12.038Z,8.43
2018-08-07T06:26:40.318Z,8.73
2018-08-07T06:29:08.575Z,8.53
2018-08-07T06:31:36.927Z,8.40
2018-08-07T06:34:05.243Z,8.93
2018-08-07T06:36:33.487Z,8.37
2018-08-07T06:39:01.757Z,8.57
2018-08-07T06:41:30.006Z,8.53
2018-08-07T06:43:59.032Z,9.03
2018-08-07T06:46:27.292Z,8.00
2018-08-07T06:48:55.533Z,8.20
2018-08-07T06:51:23.812Z,8.50
2018-08-07T06:53:52.065Z,8.63
2018-08-07T06:56:20.325Z,8.40
2018-08-07T06:58:48.590Z,8.43
2018-08-07T07:01:16.853Z,8.97
2018-08-07T07:03:45.114Z,8.80
2018-08-07T07:06:13.369Z,8.87
2018-08-07T07:08:42.417Z,8.10
2018-08-07T07:11:10.663Z,8.07
2018-08-07T07:13:38.903Z,7.77
2018-08-07T07:16:07.174Z,8.00
2018-08-07T07:18:35.414Z,7.63
2018-08-07T07:21:03.682Z,7.93
2018-08-07T07:23:31.942Z,7.83
2018-08-07T07:26:00.227Z,7.60
2018-08-07T07:28:28.502Z,8.30
2018-08-07T07:30:56.752Z,7.57
2018-08-07T07:33:25.774Z,7.67
2018-08-07T07:35:54.029Z,7.13
2018-08-07T07:38:22.275Z,7.73
2018-08-07T07:40:51.305Z,7.53
2018-08-07T07:43:19.553Z,7.67
2018-08-07T07:45:48.590Z,7.70
2018-08-07T07:48:17.597Z,7.17
2018-08-07T07:50:45.857Z,7.20
2018-08-07T07:53:14.124Z,6.87
2018-08-07T07:55:42.374Z,7.00
2018-08-07T07:58:10.642Z,7.13
2018-08-07T08:00:39.666Z,7.20
2018-08-07T08:03:07.898Z,7.13
2018-08-07T08:05:37.015Z,7.30
2018-08-07T08:08:05.192Z,6.60
2018-08-07T08:10:33.451Z,6.97
2018-08-07T08:13:02.467Z,7.00
2018-08-07T08:15:30.744Z,6.97
2018-08-07T08:17:59.006Z,6.87
2018-08-07T08:20:27.604Z,6.47
2018-08-07T08:22:56.623Z,6.40
2018-08-07T08:25:24.867Z,6.83
2018-08-07T08:27:53.136Z,6.60
2018-08-07T08:30:21.395Z,6.23
2018-08-07T08:32:50.406Z,6.33
2018-08-07T08:35:18.855Z,6.93
2018-08-07T08:37:47.089Z,6.30
2018-08-07T08:40:15.345Z,6.63
2018-08-07T08:42:43.595Z,7.67
2018-08-07T08:45:11.859Z,6.07
2018-08-07T08:47:40.892Z,6.70
2018-08-07T08:50:09.137Z,6.03
2018-08-07T08:52:37.399Z,6.07
2018-08-07T08:55:06.414Z,5.83
2018-08-07T08:57:34.682Z,6.53
2018-08-07T09:00:02.961Z,6.30
2018-08-07T09:02:32.274Z,6.07
2018-08-07T09:05:00.546Z,6.30
2018-08-07T09:07:28.795Z,6.70
2018-08-07T09:09:57.825Z,6.17
2018-08-07T09:12:26.081Z,6.47
2018-08-07T09:14:54.325Z,6.23
2018-08-07T09:17:23.358Z,5.97
2018-08-07T09:19:51.608Z,6.60
2018-08-07T09:22:20.625Z,6.10
2018-08-07T09:24:49.638Z,6.60
2018-08-07T09:27:17.898Z,6.20
2018-08-07T09:29:46.154Z,6.23
2018-08-07T09:32:14.407Z,6.27
2018-08-07T09:34:43.435Z,6.10
2018-08-07T09:37:11.683Z,6.07
2018-08-07T09:39:40.775Z,6.20
2018-08-07T09:42:08.958Z,6.07
2018-08-07T09:44:37.239Z,6.20
2018-08-07T09:47:05.592Z,6.60
2018-08-07T09:49:33.829Z,6.40
2018-08-07T09:52:02.083Z,6.10
2018-08-07T09:54:30.350Z,6.17
2018-08-07T09:56:58.615Z,6.20
2018-08-07T09:59:26.874Z,5.73
2018-08-07T10:01:55.908Z,5.80
2018-08-07T10:04:24.160Z,6.00
2018-08-07T10:06:52.673Z,5.77
2018-08-07T10:09:20.919Z,5.60
2018-08-07T10:11:49.192Z,5.33
2018-08-07T10:14:18.242Z,5.50
2018-08-07T10:16:46.514Z,6.30
2018-08-07T10:19:14.746Z,5.70
2018-08-07T10:21:42.997Z,5.93
2018-08-07T10:24:11.263Z,5.60
2018-08-07T10:26:40.295Z,5.43
2018-08-07T10:29:08.554Z,5.37
2018-08-07T10:31:36.831Z,5.80
2018-08-07T10:34:05.074Z,6.03
2018-08-07T10:36:34.386Z,5.70
2018-08-07T10:39:03.414Z,5.63
2018-08-07T10:41:31.663Z,5.87
2018-08-07T10:44:00.062Z,6.17
2018-08-07T10:46:28.248Z,5.70
2018-08-07T10:48:56.473Z,5.90
2018-08-07T10:51:24.698Z,5.83
2018-08-07T10:53:52.967Z,5.40
2018-08-07T10:56:21.203Z,5.87
2018-08-07T10:58:50.219Z,5.93
2018-08-07T11:01:18.536Z,5.93
2018-08-07T11:03:47.015Z,6.00
2018-08-07T11:06:15.261Z,6.10
2018-08-07T11:08:44.270Z,6.30
2018-08-07T11:11:13.289Z,6.07
2018-08-07T11:13:41.551Z,6.00
2018-08-07T11:16:10.549Z,6.10
2018-08-07T11:18:38.810Z,5.80
2018-08-07T11:21:07.066Z,5.97
2018-08-07T11:23:36.336Z,5.70
2018-08-07T11:26:06.090Z,5.70
2018-08-07T11:28:35.101Z,5.40
2018-08-07T11:31:03.354Z,5.20
2018-08-07T11:33:32.354Z,5.13
2018-08-07T11:36:00.634Z,5.80
2018-08-07T11:38:29.633Z,5.57
2018-08-07T11:40:57.866Z,5.37
2018-08-07T11:43:26.121Z,5.60
2018-08-07T11:45:54.359Z,5.27
2018-08-07T11:48:22.965Z,5.53
2018-08-07T11:50:51.102Z,5.60
2018-08-07T11:53:19.353Z,5.47
2018-08-07T11:55:48.369Z,5.37
2018-08-07T11:58:16.614Z,5.20
2018-08-07T12:00:44.861Z,5.50
2018-08-07T12:03:13.130Z,5.53
2018-08-07T12:05:41.361Z,5.60
2018-08-07T12:08:09.966Z,5.03
2018-08-07T12:10:38.208Z,4.93
2018-08-07T12:13:07.221Z,5.43
2018-08-07T12:15:35.481Z,4.80
2018-08-07T12:18:04.501Z,4.77
2018-08-07T12:20:32.761Z,5.37
2018-08-07T12:23:00.994Z,4.97
2018-08-07T12:25:29.387Z,5.27
2018-08-07T12:27:58.395Z,4.93
2018-08-07T12:30:26.638Z,4.87
2018-08-07T12:32:54.899Z,5.50
2018-08-07T12:35:23.135Z,5.07
2018-08-07T12:37:51.397Z,5.67
2018-08-07T12:40:19.662Z,5.17
2018-08-07T12:42:48.698Z,5.03
2018-08-07T12:45:16.929Z,4.63
2018-08-07T12:47:45.936Z,5.00
2018-08-07T12:50:14.189Z,4.90
2018-08-07T12:52:43.189Z,5.00
2018-08-07T12:55:12.229Z,4.70
2018-08-07T12:57:40.474Z,5.03
2018-08-07T13:00:08.714Z,5.50
2018-08-07T13:02:36.953Z,5.27
2018-08-07T13:05:05.234Z,5.37
2018-08-07T13:07:33.503Z,5.20
2018-08-07T13:10:01.755Z,4.90
2018-08-07T13:12:31.054Z,5.10
2018-08-07T13:14:59.316Z,5.13
2018-08-07T13:17:27.621Z,4.77
2018-08-07T13:19:56.590Z,5.43
2018-08-07T13:22:24.843Z,4.80
2018-08-07T13:24:53.842Z,4.53
2018-08-07T13:27:22.875Z,4.50
2018-08-07T13:29:51.118Z,5.00
2018-08-07T13:32:19.370Z,4.57
2018-08-07T13:34:48.406Z,4.87
2018-08-07T13:37:16.681Z,4.97
2018-08-07T13:39:44.935Z,4.60
2018-08-07T13:42:13.182Z,4.57
2018-08-07T13:44:41.433Z,4.40
2018-08-07T13:47:09.694Z,4.30
2018-08-07T13:49:37.966Z,4.60
2018-08-07T13:52:06.203Z,4.30
2018-08-07T13:54:35.226Z,4.30
2018-08-07T13:57:03.467Z,4.30
2018-08-07T13:59:32.490Z,4.23
2018-08-07T14:02:00.742Z,4.00
2018-08-07T14:04:28.977Z,4.03
2018-08-07T14:06:57.221Z,4.03
2018-08-07T14:09:25.587Z,3.80
2018-08-07T14:11:53.821Z,3.90
2018-08-07T14:14:22.854Z,3.80
2018-08-07T14:16:51.092Z,3.80
2018-08-07T14:19:20.103Z,3.80
2018-08-07T14:21:48.361Z,3.50
2018-08-07T14:24:17.362Z,3.47
2018-08-07T14:26:46.366Z,4.03
2018-08-07T14:29:14.624Z,3.73
2018-08-07T14:31:43.666Z,3.23
2018-08-07T14:34:11.902Z,3.83
2018-08-07T14:36:40.216Z,3.47
2018-08-07T14:39:08.425Z,4.13
2018-08-07T14:41:36.672Z,3.87
2018-08-07T14:44:04.914Z,4.13
2018-08-07T14:46:33.157Z,4.07
2018-08-07T14:49:02.193Z,3.90
2018-08-07T14:51:30.437Z,4.10
2018-08-07T14:53:59.499Z,4.60
2018-08-07T14:56:27.707Z,3.87
2018-08-07T14:58:56.726Z,3.80
2018-08-07T15:01:25.233Z,3.90
2018-08-07T15:03:53.473Z,3.80
2018-08-07T15:06:21.779Z,3.80
2018-08-07T15:08:50.746Z,4.00
2018-08-07T15:11:18.986Z,3.70
2018-08-07T15:13:47.262Z,3.40
2018-08-07T15:16:15.477Z,3.77
2018-08-07T15:18:43.718Z,3.63
2018-08-07T15:21:13.354Z,3.50
2018-08-07T15:23:41.686Z,3.80
2018-08-07T15:26:10.302Z,3.73
2018-08-07T15:28:38.562Z,3.43
2018-08-07T15:31:06.823Z,3.67
2018-08-07T15:33:35.842Z,3.37
2018-08-07T15:36:04.082Z,3.30
2018-08-07T15:38:32.506Z,3.27
2018-08-07T15:41:00.754Z,3.10
2018-08-07T15:43:29.758Z,2.80
2018-08-07T15:45:58.346Z,2.83
2018-08-07T15:48:26.589Z,2.70
2018-08-07T15:50:54.829Z,2.50
2018-08-07T15:53:23.098Z,2.70
2018-08-07T15:55:51.341Z,2.70
2018-08-07T15:58:19.589Z,3.03
2018-08-07T16:00:48.619Z,2.30
2018-08-07T16:03:16.960Z,2.70
2018-08-07T16:05:45.207Z,2.73
2018-08-07T16:08:13.415Z,2.90
2018-08-07T16:10:42.422Z,2.43
2018-08-07T16:13:10.703Z,2.43
2018-08-07T16:15:39.709Z,2.40
2018-08-07T16:18:07.989Z,2.60
2018-08-07T16:20:36.240Z,2.33
2018-08-07T16:23:04.795Z,2.47
2018-08-07T16:25:33.054Z,2.60
2018-08-07T16:28:02.815Z,2.33
2018-08-07T16:30:31.098Z,2.73
2018-08-07T16:32:59.362Z,2.50
2018-08-07T16:35:28.708Z,2.40
2018-08-07T16:37:56.929Z,2.40
2018-08-07T16:40:25.185Z,2.30
2018-08-07T16:42:53.450Z,2.40
2018-08-07T16:45:21.714Z,2.50
2018-08-07T16:47:50.689Z,2.60
2018-08-07T16:50:18.955Z,2.00
2018-08-07T16:52:47.278Z,2.17
2018-08-07T16:55:15.510Z,2.10
2018-08-07T16:57:43.755Z,2.27
2018-08-07T17:00:12.027Z,2.37
2018-08-07T17:02:40.604Z,2.10
2018-08-07T17:05:09.598Z,2.33
2018-08-07T17:07:37.950Z,2.07
2018-08-07T17:10:06.224Z,1.90
2018-08-07T17:12:34.428Z,2.00
2018-08-07T17:15:02.699Z,1.90
2018-08-07T17:17:30.941Z,2.20
2018-08-07T17:19:59.225Z,2.13
2018-08-07T17:22:27.457Z,1.77
2018-08-07T17:24:55.698Z,2.40
2018-08-07T17:27:24.017Z,2.30
2018-08-07T17:29:52.267Z,2.13
2018-08-07T17:32:20.538Z,2.23
2018-08-07T17:34:48.812Z,1.83
2018-08-07T17:37:17.053Z,2.03
2018-08-07T17:39:46.109Z,2.53
2018-08-07T17:42:14.364Z,2.10
2018-08-07T17:44:42.632Z,2.27
2018-08-07T17:47:10.882Z,2.10
2018-08-07T17:49:39.996Z,2.10
2018-08-07T17:52:08.235Z,2.00
2018-08-07T17:54:36.483Z,2.10
2018-08-07T17:57:04.940Z,2.13
2018-08-07T17:59:33.202Z,2.07
2018-08-07T18:02:01.503Z,2.20
2018-08-07T18:04:30.559Z,1.97
2018-08-07T18:06:59.647Z,2.10
2018-08-07T18:09:27.829Z,1.93
2018-08-07T18:11:56.853Z,1.90
2018-08-07T18:14:25.101Z,2.10
2018-08-07T18:16:53.378Z,2.00
2018-08-07T18:19:21.638Z,2.07
2018-08-07T18:21:49.955Z,2.30
2018-08-07T18:24:18.214Z,2.30
2018-08-07T18:26:46.466Z,1.90
2018-08-07T18:29:14.774Z,2.33
2018-08-07T18:31:43.043Z,2.23
2018-08-07T18:34:11.314Z,2.10
2018-08-07T18:36:39.613Z,2.40
2018-08-07T18:39:07.863Z,2.40
2018-08-07T18:41:36.208Z,2.30
2018-08-07T18:44:04.449Z,2.37
2018-08-07T18:46:32.707Z,2.30
2018-08-07T18:49:00.978Z,2.53
2018-08-07T18:51:29.284Z,2.47
2018-08-07T18:53:57.486Z,2.30
2018-08-07T18:56:26.543Z,2.27
2018-08-07T18:58:54.783Z,2.17
2018-08-07T19:01:23.098Z,2.10
2018-08-07T19:03:51.383Z,3.00
2018-08-07T19:06:19.676Z,2.63
2018-08-07T19:08:48.673Z,2.90
2018-08-07T19:11:17.719Z,2.63
2018-08-07T19:13:45.979Z,2.57
2018-08-07T19:16:14.267Z,2.70
2018-08-07T19:18:42.547Z,2.77
2018-08-07T19:21:10.798Z,2.20
2018-08-07T19:23:39.059Z,2.60
2018-08-07T19:26:07.351Z,2.70
2018-08-07T19:28:35.715Z,2.60
2018-08-07T19:31:03.985Z,2.60
2018-08-07T19:33:32.226Z,2.37
2018-08-07T19:36:01.342Z,2.50
2018-08-07T19:38:30.417Z,2.50
2018-08-07T19:40:58.971Z,2.60
2018-08-07T19:43:27.241Z,2.37
2018-08-07T19:45:55.545Z,2.53
2018-08-07T19:48:23.795Z,2.60
2018-08-07T19:50:52.062Z,2.93
2018-08-07T19:53:20.358Z,2.53
2018-08-07T19:55:48.674Z,2.77
2018-08-07T19:58:16.981Z,2.57
2018-08-07T20:00:45.242Z,2.83
2018-08-07T20:03:13.504Z,2.50
2018-08-07T20:05:41.772Z,3.10
2018-08-07T20:08:10.799Z,2.90
2018-08-07T20:10:39.120Z,2.87
2018-08-07T20:13:07.315Z,3.00
2018-08-07T20:15:35.671Z,2.83
2018-08-07T20:18:03.916Z,2.90
2018-08-07T20:20:32.948Z,2.80
2018-08-07T20:23:01.971Z,2.73
2018-08-07T20:25:30.220Z,2.50
2018-08-07T20:27:59.256Z,2.57
2018-08-07T20:30:27.495Z,2.80
2018-08-07T20:32:55.730Z,2.80
2018-08-07T20:35:23.999Z,2.80
2018-08-07T20:37:52.470Z,2.90
2018-08-07T20:40:20.722Z,2.77
2018-08-07T20:42:48.975Z,2.93
2018-08-07T20:45:17.250Z,2.70
2018-08-07T20:47:46.277Z,2.90
2018-08-07T20:50:14.541Z,2.80
2018-08-07T20:52:42.871Z,2.97
2018-08-07T20:55:11.073Z,2.77
2018-08-07T20:57:39.338Z,3.27
2018-08-07T21:00:09.996Z,2.83
2018-08-07T21:02:38.288Z,3.10
2018-08-07T21:05:09.766Z,3.10
2018-08-07T21:07:38.026Z,2.97
2018-08-07T21:10:06.281Z,3.07
2018-08-07T21:12:34.537Z,2.70
2018-08-07T21:15:02.822Z,2.57
2018-08-07T21:17:31.839Z,3.20
2018-08-07T21:20:00.103Z,2.93
2018-08-07T21:22:28.484Z,3.13
2018-08-07T21:24:56.610Z,3.03
2018-08-07T21:27:25.639Z,2.97
2018-08-07T21:29:53.891Z,3.47
2018-08-07T21:32:22.142Z,3.10
2018-08-07T21:34:51.192Z,3.50
2018-08-07T21:37:19.453Z,3.30
2018-08-07T21:39:47.689Z,3.40
2018-08-07T21:42:16.742Z,3.30
2018-08-07T21:44:44.976Z,3.30
2018-08-07T21:47:13.719Z,3.27
2018-08-07T21:49:41.986Z,3.50
2018-08-07T21:52:10.242Z,3.37
2018-08-07T21:54:38.526Z,3.67
2018-08-07T21:57:06.759Z,3.53
2018-08-07T21:59:35.774Z,3.40
2018-08-07T22:02:04.029Z,3.60
2018-08-07T22:04:32.281Z,3.53
2018-08-07T22:07:00.538Z,3.60
2018-08-07T22:09:28.785Z,3.50
2018-08-07T22:11:57.055Z,3.60
2018-08-07T22:14:25.283Z,3.57
2018-08-07T22:16:54.335Z,5.97
2018-08-07T22:19:22.586Z,3.43
2018-08-07T22:21:50.830Z,3.17
2018-08-07T22:24:19.878Z,3.50
2018-08-07T22:26:48.133Z,3.47
2018-08-07T22:29:16.403Z,3.80
2018-08-07T22:31:44.651Z,3.30
2018-08-07T22:34:13.695Z,3.30
2018-08-07T22:36:41.942Z,3.90
2018-08-07T22:39:10.197Z,3.70
2018-08-07T22:41:39.213Z,4.00
2018-08-07T22:44:07.486Z,3.80
2018-08-07T22:46:35.749Z,3.67
2018-08-07T22:49:04.010Z,3.83
2018-08-07T22:51:33.033Z,3.83
2018-08-07T22:54:01.294Z,3.90
2018-08-07T22:56:29.557Z,3.40
2018-08-07T22:58:58.566Z,3.67
2018-08-07T23:01:26.816Z,3.97
2018-08-07T23:03:55.835Z,3.90
2018-08-07T23:06:24.102Z,3.80
2018-08-07T23:08:52.395Z,3.70
2018-08-07T23:11:20.651Z,4.17
2018-08-07T23:13:49.681Z,3.93
2018-08-07T23:16:17.926Z,4.00
2018-08-07T23:18:46.169Z,3.53
2018-08-07T23:21:14.445Z,3.97
2018-08-07T23:23:42.715Z,3.60
2018-08-07T23:26:10.958Z,3.97
2018-08-07T23:28:39.202Z,3.97
2018-08-07T23:31:07.470Z,3.73
2018-08-07T23:33:35.718Z,3.90
2018-08-07T23:36:03.978Z,3.83
2018-08-07T23:38:32.478Z,4.30
2018-08-07T23:41:01.502Z,4.10
2018-08-07T23:43:29.746Z,3.90
2018-08-07T23:45:58.790Z,4.13
2018-08-07T23:48:27.034Z,3.97
2018-08-07T23:50:55.278Z,4.40
2018-08-07T23:53:23.542Z,4.20
2018-08-07T23:55:51.786Z,4.10
2018-08-07T23:58:20.078Z,4.50
